Stroby Egede, Denmark
Current Conditions -  °F | °C
As of 8:20 AM on Saturday 20 Dec 2014 (Local Time) from EKRK Reporting Station
Light Snow Light Snow  
Wind Chill: -4°   Ceiling: 400
Heat Index:   Visibility: 4mi
Dew Point:   Wind: 13mph
Humidity: 100%   Direction: 230°SW
Pressure: 29.44"   Gusts: NA
Location:  55.41°N, 12.25°E
Report Text: EKRK 200720Z AUTO 23011KT 200V270 7000NDV -SN BKN004///BKN022/// 01/01 Q0997
Loading
Personal Weather Stations






























Interactive Weather Map New forecast layout! Learn more

10-Day Weather Forecast

Advertisements
Track Severe Weather on mobile